Time;durP1;ratioP1;P1;durP2;ratioP2;P2;SDS_P1;SDS_P2;PMS_P1;PMS_P2;Temp;Humidity;BMP_temperature;BMP_pressure;BME280_temperature;BME280_humidity;BME280_pressure;Samples;Min_cycle;Max_cycle;Signal;HPM_P1;HPM_P2
2022/10/11 00:00:52;;;;;;;6.53;3.47;;;;;;;24.83;45.24;100237.13;4131197;28;20343;-63
2022/10/11 00:02:54;;;;;;;10.33;3.20;;;;;;;24.61;45.99;100264.09;4132720;28;20239;-63
2022/10/11 00:04:56;;;;;;;10.63;3.90;;;;;;;24.59;46.22;100271.66;4128965;28;20322;-64
2022/10/11 00:06:57;;;;;;;9.13;3.63;;;;;;;24.31;46.31;100280.56;4130806;28;20264;-65
2022/10/11 00:08:59;;;;;;;5.63;3.17;;;;;;;24.27;46.78;100277.50;4137805;28;20272;-65
2022/10/11 00:11:05;;;;;;;9.73;4.00;;;;;;;23.71;47.77;100333.16;4140741;28;20242;-64
2022/10/11 00:13:07;;;;;;;6.90;3.83;;;;;;;24.35;46.49;100270.06;4125326;28;20698;-65
2022/10/11 00:15:12;;;;;;;6.47;3.67;;;;;;;24.05;47.32;100296.25;4141071;28;20229;-65
2022/10/11 00:17:13;;;;;;;7.20;4.10;;;;;;;23.86;47.82;100303.69;4131308;28;20237;-65
2022/10/11 00:19:15;;;;;;;11.53;3.47;;;;;;;24.19;47.23;100269.69;4132714;28;20233;-63
2022/10/11 00:21:17;;;;;;;8.57;3.43;;;;;;;24.36;47.00;100253.50;4141611;28;20348;-65
2022/10/11 00:23:18;;;;;;;11.33;3.97;;;;;;;24.54;46.56;100257.97;4127541;28;20237;-64
2022/10/11 00:25:20;;;;;;;9.43;3.80;;;;;;;23.81;47.46;100319.84;4139381;28;20324;-64
2022/10/11 00:27:21;;;;;;;7.73;3.57;;;;;;;24.72;46.32;100237.13;4139592;28;20270;-63
2022/10/11 00:29:23;;;;;;;8.20;4.33;;;;;;;24.85;45.73;100231.41;4141157;28;20237;-64
2022/10/11 00:31:25;;;;;;;9.37;3.97;;;;;;;24.67;46.12;100252.25;4142032;28;20253;-65
2022/10/11 00:33:26;;;;;;;6.77;3.90;;;;;;;24.63;46.30;100264.69;4141945;28;20268;-65
2022/10/11 00:35:28;;;;;;;12.23;4.50;;;;;;;24.41;46.38;100278.09;4133207;28;20308;-65
2022/10/11 00:37:30;;;;;;;10.57;4.00;;;;;;;24.46;46.62;100278.19;4128733;28;20546;-65
2022/10/11 00:39:32;;;;;;;9.60;4.20;;;;;;;24.62;46.16;100262.22;4129883;28;20234;-65
2022/10/11 00:41:33;;;;;;;10.03;3.83;;;;;;;24.60;46.12;100267.88;4139400;28;20798;-63
2022/10/11 00:43:35;;;;;;;8.43;4.13;;;;;;;24.41;46.18;100302.56;4137541;28;20233;-65
2022/10/11 00:45:36;;;;;;;13.97;4.27;;;;;;;24.99;45.09;100243.66;4125162;28;20322;-63
2022/10/11 00:47:39;;;;;;;10.90;4.50;;;;;;;25.14;45.28;100245.84;4131853;28;20320;-63
2022/10/11 00:49:44;;;;;;;9.33;4.53;;;;;;;24.99;45.09;100259.16;4129368;28;20447;-63
2022/10/11 00:51:54;;;;;;;6.67;3.90;;;;;;;24.36;46.39;100316.00;4125166;28;20304;-64
2022/10/11 00:53:55;;;;;;;9.63;4.80;;;;;;;24.79;45.53;100265.84;4139797;28;20735;-65
2022/10/11 00:56:06;;;;;;;8.63;4.40;;;;;;;24.58;45.85;100308.09;4138550;28;20340;-65
2022/10/11 00:58:10;;;;;;;9.17;4.37;;;;;;;24.50;46.23;100300.28;4136825;28;20292;-64
2022/10/11 01:00:13;;;;;;;12.57;4.33;;;;;;;24.69;45.82;100280.03;4141098;28;20318;-65
2022/10/11 01:02:16;;;;;;;6.80;4.10;;;;;;;24.96;45.58;100265.09;4134562;28;20883;-65
2022/10/11 01:04:17;;;;;;;12.70;4.33;;;;;;;24.89;45.07;100270.66;4127204;28;20234;-65
2022/10/11 01:06:19;;;;;;;11.63;4.50;;;;;;;24.81;45.48;100273.78;4138722;28;20233;-65
2022/10/11 01:08:22;;;;;;;9.97;4.70;;;;;;;24.72;45.90;100286.06;4140680;28;20257;-65
2022/10/11 01:10:24;;;;;;;9.10;4.40;;;;;;;24.90;45.17;100276.94;4140579;28;20229;-64
2022/10/11 01:12:28;;;;;;;11.23;5.30;;;;;;;24.79;45.25;100286.78;4138249;28;20611;-64
2022/10/11 01:14:46;;;;;;;12.10;4.07;;;;;;;24.82;45.19;100280.88;4133622;28;20269;-65
2022/10/11 01:17:01;;;;;;;9.40;4.10;;;;;;;24.89;45.57;100275.28;4133950;28;20713;-66
2022/10/11 01:19:33;;;;;;;10.23;4.37;;;;;;;24.37;46.47;100306.78;4130918;28;20264;-65
2022/10/11 01:21:50;;;;;;;16.13;5.50;;;;;;;24.59;45.21;100282.53;4124426;28;20230;-65
2022/10/11 01:24:04;;;;;;;12.23;4.20;;;;;;;24.61;45.36;100291.28;4121443;28;20230;-65
2022/10/11 01:26:30;;;;;;;11.10;4.73;;;;;;;24.17;46.52;100325.34;4124137;28;20226;-64
2022/10/11 01:28:37;;;;;;;12.07;4.80;;;;;;;24.10;46.26;100320.00;4114636;28;20799;-65
2022/10/11 01:30:41;;;;;;;12.27;5.20;;;;;;;23.89;46.36;100330.38;4135251;28;20251;-65
2022/10/11 01:32:51;;;;;;;9.80;4.63;;;;;;;24.23;45.77;100299.97;4130249;28;20340;-65
2022/10/11 01:35:14;;;;;;;11.47;4.57;;;;;;;24.84;44.97;100262.41;4128955;28;20243;-65
2022/10/11 01:37:28;;;;;;;10.47;4.40;;;;;;;24.48;45.19;100310.56;4137450;28;20737;-65
2022/10/11 01:39:35;;;;;;;12.13;5.00;;;;;;;24.14;46.20;100332.03;4138188;28;20316;-65
2022/10/11 01:41:54;;;;;;;8.17;4.47;;;;;;;24.59;45.17;100284.44;4129564;28;20276;-65
2022/10/11 01:44:01;;;;;;;12.97;4.97;;;;;;;24.33;45.71;100312.94;4137477;28;20221;-64
2022/10/11 01:46:04;;;;;;;9.87;5.30;;;;;;;23.22;47.55;100365.75;4139530;28;20246;-65
2022/10/11 01:48:10;;;;;;;11.10;4.70;;;;;;;24.20;46.19;100292.28;4135356;28;20290;-65
2022/10/11 01:50:42;;;;;;;12.13;4.60;;;;;;;23.68;47.20;100322.78;4130354;28;20633;-65
2022/10/11 01:52:44;;;;;;;10.63;4.27;;;;;;;23.18;47.62;100351.81;4128596;28;20828;-64
2022/10/11 01:55:04;;;;;;;7.93;4.50;;;;;;;23.55;47.56;100327.34;4130189;28;20257;-64
2022/10/11 01:57:19;;;;;;;7.33;4.27;;;;;;;23.65;47.13;100323.22;4125399;28;20238;-63
2022/10/11 01:59:33;;;;;;;11.70;4.97;;;;;;;23.45;47.86;100337.91;4131826;28;20275;-65
2022/10/11 02:01:41;;;;;;;10.17;5.00;;;;;;;23.36;47.26;100344.69;4140128;28;20233;-65
2022/10/11 02:03:51;;;;;;;9.23;4.40;;;;;;;23.82;46.61;100316.06;4120815;28;20237;-63
2022/10/11 02:06:08;;;;;;;9.17;4.43;;;;;;;24.30;45.60;100277.03;4126126;28;20927;-65
2022/10/11 02:08:28;;;;;;;13.23;5.20;;;;;;;23.79;46.86;100324.69;4126659;28;20240;-64
2022/10/11 02:10:53;;;;;;;10.07;4.83;;;;;;;23.57;46.96;100333.38;4131110;28;20240;-65
2022/10/11 02:12:58;;;;;;;8.70;4.87;;;;;;;24.22;46.21;100280.09;4133775;28;20953;-65
2022/10/11 02:15:02;;;;;;;10.00;5.13;;;;;;;23.88;46.60;100317.84;4140892;28;20275;-64
2022/10/11 02:17:10;;;;;;;10.53;4.80;;;;;;;24.07;46.10;100309.59;4135108;28;20901;-65
2022/10/11 02:19:17;;;;;;;8.93;5.10;;;;;;;24.31;45.85;100297.72;4131493;28;20237;-65
2022/10/11 02:21:22;;;;;;;11.40;5.10;;;;;;;23.95;45.96;100340.28;4119903;28;20233;-65
2022/10/11 02:23:37;;;;;;;11.10;4.80;;;;;;;24.01;46.28;100321.41;4138134;28;20237;-65
2022/10/11 02:25:39;;;;;;;11.20;5.03;;;;;;;23.54;46.51;100360.94;4135224;28;20899;-65
2022/10/11 02:27:45;;;;;;;12.30;5.10;;;;;;;23.94;45.95;100333.22;4139728;28;20256;-63
2022/10/11 02:29:49;;;;;;;9.33;5.53;;;;;;;22.85;47.73;100398.28;4126539;28;20234;-65
2022/10/11 02:31:53;;;;;;;13.67;5.90;;;;;;;23.12;47.19;100384.47;4138382;28;20316;-65
2022/10/11 02:34:08;;;;;;;11.53;5.27;;;;;;;22.96;47.48;100394.00;4139466;28;21109;-63
2022/10/11 02:36:18;;;;;;;11.30;5.47;;;;;;;23.64;46.57;100346.03;4131712;28;20316;-64
2022/10/11 02:38:23;;;;;;;13.70;5.70;;;;;;;23.38;46.90;100359.69;4129329;28;20247;-65
2022/10/11 02:40:31;;;;;;;10.27;5.67;;;;;;;23.75;45.93;100334.34;4140807;28;20232;-65
2022/10/11 02:42:38;;;;;;;11.73;6.00;;;;;;;23.81;45.61;100329.91;4133039;28;20316;-65
2022/10/11 02:44:52;;;;;;;10.93;6.23;;;;;;;23.27;46.94;100368.59;4140282;28;20276;-65
2022/10/11 02:46:54;;;;;;;13.07;6.13;;;;;;;22.55;47.02;100388.13;4137362;28;20316;-65
2022/10/11 02:48:58;;;;;;;10.93;6.37;;;;;;;23.84;45.45;100327.53;4137957;28;20336;-65
2022/10/11 02:51:02;;;;;;;10.27;6.67;;;;;;;23.57;45.70;100351.53;4129321;28;20237;-65
2022/10/11 02:53:03;;;;;;;12.20;6.87;;;;;;;22.89;46.74;100393.22;4127437;28;20670;-64
2022/10/11 02:55:06;;;;;;;12.50;7.50;;;;;;;23.31;46.23;100374.41;4129927;28;20229;-65
2022/10/11 02:57:08;;;;;;;16.83;8.00;;;;;;;23.26;45.76;100366.94;4134857;28;20245;-63
2022/10/11 02:59:09;;;;;;;14.47;8.47;;;;;;;22.93;46.45;100395.31;4125199;28;20669;-63
2022/10/11 03:01:12;;;;;;;18.47;8.40;;;;;;;23.20;45.74;100368.69;4123237;28;20226;-65
2022/10/11 03:03:14;;;;;;;18.07;9.03;;;;;;;23.19;46.03;100367.03;4127891;28;20316;-65
2022/10/11 03:05:16;;;;;;;14.53;7.93;;;;;;;23.17;46.24;100379.19;4128813;28;20333;-64
2022/10/11 03:07:17;;;;;;;14.27;8.33;;;;;;;22.96;46.32;100388.59;4118065;28;20230;-63
2022/10/11 03:09:19;;;;;;;14.90;8.30;;;;;;;22.81;46.64;100399.75;4124231;28;20853;-65
2022/10/11 03:11:21;;;;;;;15.07;8.17;;;;;;;22.98;45.97;100378.38;4124589;28;20776;-63
2022/10/11 03:13:22;;;;;;;14.50;8.20;;;;;;;23.30;45.65;100354.59;4115316;28;20266;-66
2022/10/11 03:15:24;;;;;;;14.73;9.27;;;;;;;23.33;45.77;100354.13;4120385;28;20236;-63
2022/10/11 03:17:28;;;;;;;15.57;8.93;;;;;;;23.85;44.80;100323.75;4130116;28;20237;-63
2022/10/11 03:19:38;;;;;;;14.57;8.77;;;;;;;22.55;47.15;100411.72;4118948;28;20269;-63
2022/10/11 03:21:39;;;;;;;14.83;8.87;;;;;;;22.46;47.02;100413.88;4132545;28;20319;-63
2022/10/11 03:23:41;;;;;;;11.70;8.47;;;;;;;22.90;46.15;100376.75;4126525;28;20324;-63
2022/10/11 03:25:44;;;;;;;13.23;8.43;;;;;;;22.84;46.59;100385.75;4139099;28;20280;-63
2022/10/11 03:27:45;;;;;;;15.27;8.43;;;;;;;23.12;46.27;100358.16;4134298;28;20236;-63
2022/10/11 03:29:47;;;;;;;12.87;8.77;;;;;;;22.36;46.40;100403.53;4138277;28;20243;-63
2022/10/11 03:31:49;;;;;;;15.93;9.67;;;;;;;23.64;44.92;100327.84;4125812;28;20253;-63
2022/10/11 03:33:50;;;;;;;12.83;9.17;;;;;;;23.47;45.21;100354.78;4139243;28;20240;-67
2022/10/11 03:35:52;;;;;;;16.57;9.77;;;;;;;23.44;45.24;100365.28;4131498;28;20240;-65
2022/10/11 03:37:53;;;;;;;13.80;9.37;;;;;;;22.70;46.17;100422.22;4126271;28;20312;-66
2022/10/11 03:39:55;;;;;;;15.67;9.20;;;;;;;22.78;46.17;100424.63;4131177;28;20340;-66
2022/10/11 03:41:57;;;;;;;15.37;9.77;;;;;;;23.14;45.64;100385.88;4136085;28;20724;-64
2022/10/11 03:43:58;;;;;;;17.67;10.17;;;;;;;23.22;45.38;100390.16;4130393;28;20241;-66
2022/10/11 03:46:00;;;;;;;14.27;11.07;;;;;;;22.53;46.58;100430.09;4136268;28;20229;-65
2022/10/11 03:48:02;;;;;;;19.67;11.03;;;;;;;22.30;47.31;100428.78;4132775;28;20828;-66
2022/10/11 03:50:06;;;;;;;15.47;11.30;;;;;;;22.22;47.03;100431.72;4134202;28;20256;-63
2022/10/11 03:52:07;;;;;;;15.03;11.23;;;;;;;22.79;46.41;100397.31;4125571;28;20316;-63
2022/10/11 03:54:09;;;;;;;21.33;12.53;;;;;;;22.69;46.72;100407.81;4127614;28;20774;-63
2022/10/11 03:56:11;;;;;;;18.70;13.17;;;;;;;22.08;47.17;100445.41;4128975;28;20226;-65
2022/10/11 03:58:12;;;;;;;17.00;12.23;;;;;;;21.83;48.33;100429.09;4130333;28;20890;-65
2022/10/11 04:00:14;;;;;;;19.53;12.83;;;;;;;22.21;47.48;100393.00;4136025;28;20229;-65
2022/10/11 04:02:16;;;;;;;19.53;13.03;;;;;;;21.79;47.82;100425.16;4137461;28;20252;-62
2022/10/11 04:04:18;;;;;;;19.43;11.97;;;;;;;22.21;47.44;100411.13;4130653;28;20233;-62
2022/10/11 04:06:19;;;;;;;16.93;11.73;;;;;;;22.57;46.54;100369.78;4109754;28;20325;-62
2022/10/11 04:08:21;;;;;;;17.40;12.27;;;;;;;22.25;46.82;100415.91;4140365;28;20265;-65
2022/10/11 04:10:22;;;;;;;18.80;13.03;;;;;;;21.43;47.85;100439.25;4143682;28;20316;-63
2022/10/11 04:12:24;;;;;;;17.80;13.20;;;;;;;21.95;47.53;100417.56;4143136;28;20233;-65
2022/10/11 04:14:26;;;;;;;18.67;13.73;;;;;;;20.95;49.72;100433.13;4142722;28;20312;-63
2022/10/11 04:16:27;;;;;;;18.63;13.20;;;;;;;21.11;49.07;100422.94;4141269;28;20234;-62
2022/10/11 04:18:29;;;;;;;20.77;14.33;;;;;;;22.04;47.52;100379.16;4140567;28;20717;-65
2022/10/11 04:20:31;;;;;;;16.33;14.30;;;;;;;21.12;48.62;100443.50;4127212;28;20877;-65
2022/10/11 04:22:32;;;;;;;16.30;14.13;;;;;;;21.68;48.08;100396.06;4129836;28;20645;-64
2022/10/11 04:24:34;;;;;;;21.40;13.97;;;;;;;21.46;48.22;100423.44;4139162;28;20321;-62
2022/10/11 04:26:36;;;;;;;16.07;14.03;;;;;;;21.78;47.66;100404.56;4131214;28;20286;-65
2022/10/11 04:28:37;;;;;;;19.80;14.13;;;;;;;21.61;47.96;100425.81;4138353;28;20237;-65
2022/10/11 04:30:39;;;;;;;19.70;13.70;;;;;;;21.10;48.77;100451.81;4138606;28;20238;-63
2022/10/11 04:32:41;;;;;;;19.83;14.97;;;;;;;22.58;46.39;100357.06;4122212;28;20613;-64
2022/10/11 04:34:42;;;;;;;20.03;14.00;;;;;;;22.21;46.45;100411.13;4137507;28;20267;-64
2022/10/11 04:36:44;;;;;;;20.80;15.70;;;;;;;21.96;46.95;100444.41;4140282;28;20344;-65
2022/10/11 04:38:50;;;;;;;21.20;16.87;;;;;;;22.14;46.93;100435.56;4139215;28;20269;-63
2022/10/11 04:40:52;;;;;;;21.17;15.43;;;;;;;21.90;46.85;100453.44;4133993;28;20740;-65
2022/10/11 04:42:53;;;;;;;18.47;15.47;;;;;;;21.51;47.80;100480.44;4125887;28;20236;-63
2022/10/11 04:44:55;;;;;;;21.17;15.23;;;;;;;21.31;48.34;100475.09;4140220;28;20312;-63
2022/10/11 04:46:56;;;;;;;21.53;15.43;;;;;;;22.17;47.10;100434.28;4130266;28;20230;-63
2022/10/11 04:48:58;;;;;;;22.50;15.20;;;;;;;22.57;45.97;100401.47;4140582;28;20249;-65
2022/10/11 04:51:00;;;;;;;18.50;14.60;;;;;;;21.24;48.28;100489.66;4136433;28;20414;-65
2022/10/11 04:53:01;;;;;;;19.33;14.23;;;;;;;21.21;48.51;100496.34;4137326;28;20296;-63
2022/10/11 04:55:03;;;;;;;18.83;13.87;;;;;;;21.51;47.54;100487.69;4139588;28;20320;-66
2022/10/11 04:57:05;;;;;;;17.80;13.97;;;;;;;22.05;46.97;100453.97;4134858;28;20685;-64
2022/10/11 04:59:07;;;;;;;22.87;16.03;;;;;;;21.14;48.72;100504.44;4135809;28;20240;-63
2022/10/11 05:01:09;;;;;;;22.77;14.53;;;;;;;21.32;48.18;100495.66;4140615;28;20236;-64
2022/10/11 05:03:11;;;;;;;19.83;15.83;;;;;;;21.92;47.48;100443.19;4140696;28;20668;-64
2022/10/11 05:05:16;;;;;;;19.73;13.90;;;;;;;21.34;48.39;100484.63;4139638;28;20726;-63
2022/10/11 05:07:18;;;;;;;18.67;13.97;;;;;;;21.50;47.46;100488.75;4126478;28;20910;-63
2022/10/11 05:09:20;;;;;;;16.20;12.83;;;;;;;22.01;47.01;100457.31;4132913;28;20336;-64
2022/10/11 05:11:22;;;;;;;17.40;13.23;;;;;;;22.03;46.94;100477.69;4138579;28;20257;-64
2022/10/11 05:13:24;;;;;;;17.20;12.17;;;;;;;22.32;46.28;100445.69;4142509;28;20277;-62
2022/10/11 05:15:25;;;;;;;16.00;12.77;;;;;;;22.18;46.28;100471.97;4142664;28;20312;-64
2022/10/11 05:17:27;;;;;;;16.03;12.80;;;;;;;21.75;47.20;100515.97;4136429;28;20321;-65
2022/10/11 05:19:28;;;;;;;19.07;11.90;;;;;;;22.10;46.40;100488.47;4140708;28;20237;-65
2022/10/11 05:21:30;;;;;;;16.97;12.03;;;;;;;21.81;46.62;100512.38;4140746;28;20233;-63
2022/10/11 05:23:34;;;;;;;16.37;13.07;;;;;;;22.08;46.34;100494.16;4131275;28;20714;-65
2022/10/11 05:25:36;;;;;;;14.13;11.73;;;;;;;21.69;46.96;100533.88;4139991;28;20243;-65
2022/10/11 05:27:38;;;;;;;18.63;12.93;;;;;;;20.48;48.69;100561.16;4139938;28;20237;-65
2022/10/11 05:29:39;;;;;;;17.93;12.13;;;;;;;21.28;47.62;100509.84;4142619;28;20235;-63
2022/10/11 05:31:42;;;;;;;17.00;11.30;;;;;;;21.35;47.73;100497.94;4141069;28;20245;-63
2022/10/11 05:33:43;;;;;;;13.70;11.03;;;;;;;21.26;47.78;100510.06;4126998;28;20316;-65
2022/10/11 05:35:45;;;;;;;14.50;10.63;;;;;;;21.25;47.07;100532.72;4129426;28;20225;-62
2022/10/11 05:37:47;;;;;;;14.37;10.70;;;;;;;20.75;47.91;100560.19;4128524;28;20245;-64
2022/10/11 05:39:48;;;;;;;14.80;10.80;;;;;;;21.66;46.77;100501.84;4128420;28;20745;-63
2022/10/11 05:41:50;;;;;;;17.07;11.30;;;;;;;21.18;47.54;100545.44;4137963;28;20244;-64
2022/10/11 05:43:52;;;;;;;15.83;10.33;;;;;;;20.83;47.70;100564.53;4118003;28;20314;-64
2022/10/11 05:45:54;;;;;;;15.63;10.23;;;;;;;21.14;47.13;100555.84;4139007;28;20267;-63
2022/10/11 05:47:55;;;;;;;15.33;10.30;;;;;;;21.59;46.23;100538.88;4140644;28;20733;-64
2022/10/11 05:49:57;;;;;;;17.63;11.47;;;;;;;21.70;46.29;100535.53;4138099;28;20716;-64
2022/10/11 05:51:59;;;;;;;16.47;11.30;;;;;;;21.99;45.93;100511.69;4120774;28;20242;-64
2022/10/11 05:54:00;;;;;;;15.70;11.10;;;;;;;20.87;47.36;100584.72;4136404;28;20327;-64
2022/10/11 05:56:03;;;;;;;16.10;11.03;;;;;;;21.06;47.45;100585.78;4137159;28;20296;-64
2022/10/11 05:58:05;;;;;;;15.47;9.83;;;;;;;20.86;47.79;100593.03;4134035;28;20230;-64
2022/10/11 06:00:08;;;;;;;16.53;10.40;;;;;;;21.27;47.21;100560.38;4129504;28;20226;-63
2022/10/11 06:02:12;;;;;;;16.93;9.63;;;;;;;21.64;46.69;100535.56;4141158;28;20237;-64
2022/10/11 06:04:15;;;;;;;16.07;10.20;;;;;;;21.81;46.05;100538.63;4136466;28;20234;-64
2022/10/11 06:06:18;;;;;;;16.57;9.60;;;;;;;21.28;47.31;100583.69;4124866;28;20854;-64
2022/10/11 06:08:19;;;;;;;14.03;9.00;;;;;;;20.80;48.00;100592.81;4131660;28;20279;-63
2022/10/11 06:10:21;;;;;;;15.30;10.00;;;;;;;21.29;47.18;100571.00;4157610;28;20611;-63
2022/10/11 06:12:22;;;;;;;14.13;8.93;;;;;;;20.83;47.57;100601.56;4137708;28;20251;-64
2022/10/11 06:14:24;;;;;;;14.10;8.23;;;;;;;20.19;48.59;100596.38;4117371;28;20888;-64
2022/10/11 06:16:27;;;;;;;10.47;7.80;;;;;;;20.96;47.10;100586.19;4138576;28;20711;-64
2022/10/11 06:18:28;;;;;;;10.20;6.97;;;;;;;19.95;48.53;100605.00;4138581;28;20244;-63
2022/10/11 06:20:30;;;;;;;14.57;6.10;;;;;;;20.19;47.59;100617.97;4129394;28;20229;-63
2022/10/11 06:22:31;;;;;;;9.67;5.80;;;;;;;20.44;47.16;100595.88;4138850;28;20242;-64
2022/10/11 06:24:33;;;;;;;8.40;5.90;;;;;;;20.32;47.29;100582.13;4136780;28;20252;-63
2022/10/11 06:26:35;;;;;;;8.77;5.43;;;;;;;20.01;47.84;100591.53;4120533;28;20252;-64
2022/10/11 06:28:36;;;;;;;12.10;5.60;;;;;;;20.14;47.16;100589.91;4135346;28;20599;-64
2022/10/11 06:30:38;;;;;;;6.80;4.33;;;;;;;20.04;47.18;100571.38;4134701;28;20328;-63
2022/10/11 06:32:40;;;;;;;9.27;4.40;;;;;;;19.82;47.89;100587.69;4132954;28;20728;-64
2022/10/11 06:34:41;;;;;;;7.27;4.00;;;;;;;19.57;48.41;100600.84;4127694;28;20344;-63
2022/10/11 06:36:43;;;;;;;9.47;4.20;;;;;;;20.50;46.07;100559.94;4134862;28;20965;-63
2022/10/11 06:38:44;;;;;;;7.30;3.80;;;;;;;20.01;46.46;100599.63;4126597;28;20248;-63
2022/10/11 06:40:46;;;;;;;8.57;3.87;;;;;;;20.41;46.02;100585.47;4136834;28;20791;-63
2022/10/11 06:42:48;;;;;;;7.47;3.67;;;;;;;19.39;47.25;100632.84;4129219;28;20231;-65
2022/10/11 06:44:50;;;;;;;8.90;3.60;;;;;;;19.87;46.27;100617.59;4120007;28;20585;-63
2022/10/11 06:46:52;;;;;;;6.90;3.27;;;;;;;19.30;46.78;100642.94;4136736;28;20253;-63
2022/10/11 06:48:55;;;;;;;8.30;3.27;;;;;;;19.52;46.08;100644.56;4139234;28;20241;-63
2022/10/11 06:50:58;;;;;;;7.83;3.17;;;;;;;19.13;46.78;100651.31;4137737;28;20247;-63
2022/10/11 06:53:01;;;;;;;6.50;2.80;;;;;;;19.80;45.90;100629.41;4133674;28;20312;-63
2022/10/11 06:55:02;;;;;;;8.53;3.00;;;;;;;17.63;48.28;100659.75;4126727;28;20885;-63
2022/10/11 06:57:04;;;;;;;6.13;2.40;;;;;;;18.61;47.39;100644.34;4125115;28;20309;-63
2022/10/11 06:59:06;;;;;;;11.90;2.83;;;;;;;19.49;46.26;100606.38;4122889;28;20316;-63
2022/10/11 07:01:11;;;;;;;6.80;3.10;;;;;;;18.49;47.79;100645.84;4132045;28;20312;-63
2022/10/11 07:03:13;;;;;;;7.30;3.10;;;;;;;18.88;47.23;100633.84;4125829;28;20242;-63
2022/10/11 07:05:16;;;;;;;8.30;3.17;;;;;;;19.89;45.86;100595.81;4130907;28;20332;-63
2022/10/11 07:07:17;;;;;;;9.87;2.93;;;;;;;19.12;46.89;100648.81;4131256;28;20324;-63
2022/10/11 07:09:19;;;;;;;8.40;3.20;;;;;;;20.17;45.81;100593.03;4140417;28;20247;-63
2022/10/11 07:11:24;;;;;;;7.37;3.07;;;;;;;19.98;46.29;100589.22;4130935;28;20280;-63
2022/10/11 07:13:25;;;;;;;10.03;2.77;;;;;;;19.87;45.94;100617.59;4124433;28;20243;-63
2022/10/11 07:15:27;;;;;;;8.43;2.73;;;;;;;19.31;46.80;100661.59;4139158;28;20311;-63
2022/10/11 07:17:28;;;;;;;8.53;2.90;;;;;;;19.90;45.95;100627.19;4140917;28;20335;-63
2022/10/11 07:19:30;;;;;;;11.07;3.13;;;;;;;19.59;46.19;100654.59;4132358;28;20233;-63
2022/10/11 07:21:33;;;;;;;12.83;3.20;;;;;;;20.02;45.93;100611.25;4128163;28;20797;-63
2022/10/11 07:23:35;;;;;;;8.03;2.97;;;;;;;20.06;45.63;100637.66;4128296;28;20249;-63
2022/10/11 07:25:37;;;;;;;6.57;2.80;;;;;;;19.90;45.64;100693.84;4124068;28;20327;-63
2022/10/11 07:27:39;;;;;;;8.37;3.37;;;;;;;19.27;46.89;100681.91;4133378;28;20749;-64
2022/10/11 07:29:40;;;;;;;8.37;2.90;;;;;;;18.95;46.87;100684.09;4128316;28;20263;-63
2022/10/11 07:31:42;;;;;;;10.63;3.60;;;;;;;19.07;47.44;100643.16;4128754;28;20239;-65
2022/10/11 07:33:44;;;;;;;8.73;3.63;;;;;;;18.42;48.08;100683.44;4123164;28;20225;-63
2022/10/11 07:35:47;;;;;;;9.40;3.30;;;;;;;19.08;47.33;100636.72;4135653;28;20240;-63
2022/10/11 07:37:49;;;;;;;7.10;2.90;;;;;;;18.39;47.67;100667.66;4126399;28;20296;-63
2022/10/11 07:39:50;;;;;;;8.87;3.10;;;;;;;19.30;46.43;100645.63;4124513;28;20241;-63
2022/10/11 07:41:52;;;;;;;6.90;2.60;;;;;;;18.61;46.02;100690.13;4139329;28;20243;-63
2022/10/11 07:43:54;;;;;;;5.97;2.43;;;;;;;18.75;45.29;100674.94;4142359;28;20775;-63
2022/10/11 07:45:59;;;;;;;7.43;2.87;;;;;;;19.04;44.51;100665.94;4141563;28;20719;-63
2022/10/11 07:48:00;;;;;;;8.57;2.67;;;;;;;19.33;44.31;100664.97;4133377;28;20320;-63
2022/10/11 07:50:03;;;;;;;8.60;2.60;;;;;;;18.52;44.89;100713.63;4123525;28;20603;-63
2022/10/11 07:52:04;;;;;;;6.60;2.40;;;;;;;17.93;45.58;100729.75;4125304;28;20230;-63
2022/10/11 07:54:06;;;;;;;8.03;3.10;;;;;;;18.00;45.45;100720.78;4125878;28;20228;-63
2022/10/11 07:56:11;;;;;;;6.97;2.67;;;;;;;18.68;45.12;100669.47;4120026;28;20226;-63
2022/10/11 07:58:12;;;;;;;9.70;2.70;;;;;;;18.78;44.77;100670.00;4127394;28;20230;-63
2022/10/11 08:00:14;;;;;;;7.23;2.50;;;;;;;18.11;45.44;100718.69;4135869;28;20288;-63
2022/10/11 08:02:16;;;;;;;10.10;2.73;;;;;;;17.66;46.03;100734.72;4134970;28;20213;-63
2022/10/11 08:04:17;;;;;;;12.30;3.30;;;;;;;19.02;44.93;100651.81;4107919;28;20238;-63
2022/10/11 08:06:22;;;;;;;7.23;2.90;;;;;;;18.57;45.25;100705.81;4139303;28;20235;-63
2022/10/11 08:08:24;;;;;;;9.03;2.70;;;;;;;18.12;45.25;100737.34;4130805;28;20320;-63
2022/10/11 08:10:26;;;;;;;10.20;2.73;;;;;;;18.58;45.21;100703.97;4143811;28;20240;-63
2022/10/11 08:12:27;;;;;;;9.73;2.97;;;;;;;19.12;44.72;100676.59;4143376;28;20320;-63
2022/10/11 08:14:29;;;;;;;10.23;2.33;;;;;;;19.26;44.35;100700.97;4137584;28;20235;-63
2022/10/11 08:16:31;;;;;;;7.33;3.07;;;;;;;19.40;44.57;100669.56;4126203;28;20627;-63
2022/10/11 08:18:32;;;;;;;9.10;2.93;;;;;;;19.40;44.43;100688.44;4127563;28;20234;-63
2022/10/11 08:20:37;;;;;;;10.33;2.87;;;;;;;19.22;44.46;100721.25;4125362;28;20321;-63
2022/10/11 08:22:39;;;;;;;11.37;3.27;;;;;;;19.78;44.53;100678.19;4126467;28;20252;-63
2022/10/11 08:24:40;;;;;;;6.53;2.43;;;;;;;19.50;44.47;100715.91;4123307;28;20265;-63
2022/10/11 08:26:42;;;;;;;6.40;2.60;;;;;;;20.10;43.99;100691.25;4130914;28;20352;-63
2022/10/11 08:28:44;;;;;;;7.07;2.80;;;;;;;19.99;43.58;100711.53;4131428;28;20317;-63
2022/10/11 08:30:47;;;;;;;8.40;2.97;;;;;;;20.46;43.82;100682.94;4127188;28;20821;-63
2022/10/11 08:32:48;;;;;;;7.37;2.73;;;;;;;19.11;45.09;100753.06;4133873;28;20234;-63
2022/10/11 08:34:50;;;;;;;7.37;3.20;;;;;;;19.01;45.43;100746.34;4129998;28;20308;-63
2022/10/11 08:36:52;;;;;;;8.73;2.97;;;;;;;19.84;44.44;100671.16;4134264;28;20825;-63
2022/10/11 08:38:53;;;;;;;5.87;2.30;;;;;;;18.86;45.39;100747.19;4140357;28;20248;-63
2022/10/11 08:40:58;;;;;;;9.73;3.00;;;;;;;19.86;44.42;100693.41;4142476;28;20241;-63
2022/10/11 08:43:04;;;;;;;8.00;2.60;;;;;;;19.50;45.17;100692.50;4134572;28;20234;-63
2022/10/11 08:45:15;;;;;;;9.77;2.70;;;;;;;20.36;43.93;100653.59;4122185;28;20316;-63
2022/10/11 08:47:32;;;;;;;10.70;2.77;;;;;;;18.08;46.46;100759.41;4120558;28;20322;-64
2022/10/11 08:49:34;;;;;;;6.93;2.53;;;;;;;19.23;45.43;100679.78;4134638;28;20237;-63
2022/10/11 08:51:44;;;;;;;8.10;2.80;;;;;;;19.70;44.63;100662.13;4141066;28;20311;-63
2022/10/11 08:54:16;;;;;;;6.80;3.03;;;;;;;19.18;45.40;100687.63;4138130;28;20233;-63
2022/10/11 08:56:19;;;;;;;8.27;4.00;;;;;;;18.25;46.76;100736.66;4127873;28;20249;-63
2022/10/11 08:58:28;;;;;;;10.37;2.70;;;;;;;19.38;45.75;100655.44;4134224;28;20426;-63
2022/10/11 09:00:34;;;;;;;8.33;2.90;;;;;;;19.54;44.77;100678.59;4127979;28;20257;-63
2022/10/11 09:02:45;;;;;;;9.33;3.03;;;;;;;20.10;44.44;100672.34;4136039;28;20257;-63
2022/10/11 09:05:14;;;;;;;9.13;2.60;;;;;;;19.40;44.89;100732.41;4125072;28;20240;-63
2022/10/11 09:07:37;;;;;;;10.30;3.60;;;;;;;18.70;46.01;100734.78;4126452;28;20328;-64
2022/10/11 09:09:57;;;;;;;8.63;2.50;;;;;;;19.85;44.67;100665.56;4131216;28;20260;-63
2022/10/11 09:12:28;;;;;;;9.67;3.10;;;;;;;19.85;44.96;100699.81;4127136;28;20260;-63
2022/10/11 09:14:43;;;;;;;10.57;3.03;;;;;;;19.66;45.70;100714.84;4109747;28;20240;-64
2022/10/11 09:17:26;;;;;;;12.83;3.80;;;;;;;19.43;45.51;100705.06;4136290;28;20242;-63
2022/10/11 09:19:31;;;;;;;7.83;3.10;;;;;;;18.89;46.37;100727.13;4118202;28;20304;-64
2022/10/11 09:21:35;;;;;;;7.13;3.17;;;;;;;19.99;45.59;100638.66;4125585;28;20321;-64
2022/10/11 09:23:43;;;;;;;10.90;3.13;;;;;;;20.52;44.46;100667.78;4136278;28;20658;-63
2022/10/11 09:25:53;;;;;;;6.53;2.83;;;;;;;20.60;44.22;100654.06;4138495;28;20232;-64
2022/10/11 09:28:16;;;;;;;10.30;3.13;;;;;;;19.50;45.08;100743.75;4121618;28;20266;-64
2022/10/11 09:30:18;;;;;;;10.40;3.47;;;;;;;19.77;46.13;100692.69;4125534;28;20226;-64
2022/10/11 09:32:21;;;;;;;8.47;2.90;;;;;;;20.68;44.18;100653.06;4121079;28;20252;-63
2022/10/11 09:34:26;;;;;;;8.93;2.90;;;;;;;20.22;44.66;100698.56;4126823;28;20242;-63